M I D A S
Marine Information and Data Acquisition System
Tripno 2303 of the Zeeleeuw from 2012-03-06 08:06:39 to 2012-03-06 15:37:02
Back to CruiseResearch ActivitiesStationsMapUnderway DataData graphs

EquipmentUnitsComment
TimeDGPSUTC
LatitudeDGPSDM.mWGS84
LongitudeDGPSDM.mWGS84
HeadingGyrodeg 
SOGDGPSknotsSpeed over ground
COGDGPSdegCourse over ground
DepthEcho soundermeters200 kHz
Missing or incorrect values are displayed as -999
Navigation data collected by the RV Zeeleeuw from 2012-03-06 07:05:44 to 2012-03-06 15:48:34
Time Latitude Longitude Heading SOG COG Depth
2012-03-06 07:06:50 51°13.639 2°56.015 125.5 0.1 356 -999
2012-03-06 07:07:49 51°13.639 2°56.016 125.5 -999 173 -999
2012-03-06 07:08:49 51°13.639 2°56.016 125.5 0.1 198 -999
2012-03-06 07:09:50 51°13.639 2°56.016 125.6 -999 204 -999
2012-03-06 07:10:49 51°13.638 2°56.016 126.9 -999 348 -999
2012-03-06 07:11:50 51°13.638 2°56.016 124.3 0.1 358 -999
2012-03-06 07:12:50 51°13.637 2°56.017 127.1 0.2 186 -999
2012-03-06 07:13:50 51°13.637 2°56.017 127.6 0.1 202 -999
2012-03-06 07:14:50 51°13.637 2°56.016 127.7 0.1 214 -999
2012-03-06 07:15:49 51°13.636 2°56.015 128 -999 163 -999
2012-03-06 07:16:49 51°13.637 2°56.015 127.9 -999 310 -999
2012-03-06 07:17:49 51°13.636 2°56.015 127.4 -999 330 -999
2012-03-06 07:18:49 51°13.637 2°56.016 128.4 0.1 176 -999
2012-03-06 07:19:49 51°13.638 2°56.016 128.4 0.2 343 -999
2012-03-06 07:20:49 51°13.638 2°56.016 128.3 0.1 15 -999
2012-03-06 07:21:49 51°13.638 2°56.016 128.2 0.1 205 -999
2012-03-06 07:22:49 51°13.637 2°56.016 128 -999 223 -999
2012-03-06 07:23:49 51°13.637 2°56.017 128.4 0.1 24 -999
2012-03-06 07:24:49 51°13.637 2°56.017 128.4 0.1 7 -999
2012-03-06 07:25:49 51°13.637 2°56.016 128.4 -999 210 -999
2012-03-06 07:26:49 51°13.637 2°56.016 128.4 0.1 190 -999
2012-03-06 07:27:49 51°13.637 2°56.016 128.5 -999 349 -999
2012-03-06 07:28:49 51°13.636 2°56.016 128.4 0.1 1 -999
2012-03-06 07:29:49 51°13.636 2°56.016 128.4 0.1 192 -999
2012-03-06 07:30:49 51°13.636 2°56.016 128.5 0.1 22 -999
2012-03-06 07:31:49 51°13.637 2°56.016 128.5 0.1 227 -999
2012-03-06 07:32:49 51°13.637 2°56.016 128.5 -999 35 -999
2012-03-06 07:33:49 51°13.638 2°56.016 128.4 0.1 200 -999
2012-03-06 07:34:49 51°13.638 2°56.016 128.4 -999 238 -999
2012-03-06 07:35:49 51°13.638 2°56.016 128.2 -999 60 -999
2012-03-06 07:36:49 51°13.637 2°56.016 128.3 0.1 14 -999
2012-03-06 07:37:49 51°13.636 2°56.015 128.3 0.1 210 -999
2012-03-06 07:38:49 51°13.637 2°56.016 128.3 0.2 15 -999
2012-03-06 07:39:49 51°13.637 2°56.016 128.1 -999 18 -999
2012-03-06 07:40:49 51°13.637 2°56.016 128.1 -999 20 -999
2012-03-06 07:41:49 51°13.637 2°56.016 128.1 -999 212 -999
2012-03-06 07:42:49 51°13.636 2°56.016 128.1 0.1 25 -999
2012-03-06 07:43:49 51°13.636 2°56.015 128.1 0.1 22 -999
2012-03-06 07:44:49 51°13.637 2°56.016 128.1 0.2 32 -999
2012-03-06 07:45:49 51°13.636 2°56.016 128.4 -999 113 -999
2012-03-06 07:46:49 51°13.636 2°56.016 127.1 0.2 188 -999
2012-03-06 07:47:49 51°13.637 2°56.016 128.1 0.1 42 -999
2012-03-06 07:48:49 51°13.638 2°56.016 128 0.1 13 -999
2012-03-06 07:49:49 51°13.637 2°56.016 128 -999 67 -999
2012-03-06 07:50:49 51°13.638 2°56.017 127.9 -999 54 -999
2012-03-06 07:51:49 51°13.637 2°56.016 127.9 0.2 200 -999
2012-03-06 07:52:49 51°13.637 2°56.015 128.3 0.1 232 -999
2012-03-06 07:53:49 51°13.637 2°56.016 124.6 -999 29 -999
2012-03-06 07:54:49 51°13.636 2°56.016 119.1 0.1 197 -999
2012-03-06 07:55:49 51°13.635 2°56.016 113.6 0.1 200 -999
2012-03-06 07:56:49 51°13.634 2°56.015 107.1 0.1 201 -999
2012-03-06 07:57:49 51°13.653 2°55.945 109.1 5.3 292 -999
2012-03-06 07:58:49 51°13.671 2°55.868 108 2.1 288 -999
2012-03-06 07:59:49 51°13.696 2°55.779 120.7 4.6 300 -999
2012-03-06 08:00:49 51°13.749 2°55.68 143.5 5.1 318 -999
2012-03-06 08:01:49 51°13.831 2°55.626 177.2 5.5 350 -999
2012-03-06 08:02:49 51°13.923 2°55.636 200.7 4.7 16 -999
2012-03-06 08:03:49 51°13.966 2°55.668 233.5 0.3 13 -999
2012-03-06 08:04:49 51°13.983 2°55.6 305.3 5.2 308 -999
2012-03-06 08:05:49 51°14.074 2°55.479 327.9 8.2 328 -999
2012-03-06 08:06:49 51°14.2 2°55.353 328.5 9.2 326 -999
2012-03-06 08:07:49 51°14.333 2°55.215 330.6 10 330 -999
2012-03-06 08:08:49 51°14.474 2°55.076 330.2 10.1 328 -999
2012-03-06 08:09:47 51°14.61 2°54.927 325.5 10.5 321 12.5
2012-03-06 08:10:45 51°14.741 2°54.751 328 10.8 324 11.9
2012-03-06 08:11:45 51°14.882 2°54.572 327.8 10.7 322 12.2
2012-03-06 08:12:45 51°15.044 2°54.465 354.3 10.1 349 11.8
2012-03-06 08:12:48 51°13.592 2°56.194 125.6 -999 -999 -999
2012-03-06 08:13:45 51°15.212 2°54.418 355.2 10.3 349 8.6
2012-03-06 08:14:45 51°15.377 2°54.359 355.1 10.2 351 10.1
2012-03-06 08:15:45 51°15.546 2°54.344 1.6 10.6 356 10.8
2012-03-06 08:16:45 51°15.714 2°54.303 359.5 10.2 355 10.3
2012-03-06 08:17:45 51°15.877 2°54.321 13.5 9.7 6 11.4
2012-03-06 08:18:45 51°16.041 2°54.317 0.6 9.9 355 11.2
2012-03-06 08:19:45 51°16.203 2°54.274 359 8.9 356 11.7
2012-03-06 08:20:45 51°16.294 2°54.318 35.2 4.3 40 12.5
2012-03-06 08:21:45 51°16.309 2°54.394 91.7 2.1 110 11.9
2012-03-06 08:22:45 51°16.296 2°54.406 132.3 0.6 176 12
2012-03-06 08:23:45 51°16.282 2°54.403 156 0.9 192 12
2012-03-06 08:24:45 51°16.266 2°54.397 163 1.2 204 11.9
2012-03-06 08:25:45 51°16.251 2°54.392 161.9 1 194 11.8
2012-03-06 08:26:45 51°16.234 2°54.387 159.8 1 191 11.9
2012-03-06 08:27:45 51°16.217 2°54.383 159 0.8 182 11.9
2012-03-06 08:28:45 51°16.199 2°54.378 156.8 1.1 186 11.8
2012-03-06 08:29:45 51°16.183 2°54.376 152 1.1 181 11.7
2012-03-06 08:30:45 51°16.167 2°54.373 149.5 1 187 11.9
2012-03-06 08:31:45 51°16.151 2°54.369 149.4 1 190 11.9
2012-03-06 08:32:45 51°16.134 2°54.366 149.4 1.1 183 11.8
2012-03-06 08:33:45 51°16.116 2°54.364 149.4 1 181 11.9
2012-03-06 08:34:45 51°16.098 2°54.364 148.7 0.9 171 11.7
2012-03-06 08:35:45 51°16.081 2°54.362 148.4 1 184 11.7
2012-03-06 08:36:45 51°16.057 2°54.363 157.6 2.3 171 11.8
2012-03-06 08:37:45 51°16.005 2°54.326 230.7 4.4 231 11.6
2012-03-06 08:38:45 51°16.005 2°54.223 312.8 4 305 11.7
2012-03-06 08:39:45 51°16.082 2°54.115 323.5 8.4 320 11.9
2012-03-06 08:40:45 51°16.207 2°53.917 319.4 11.6 315 12.3
2012-03-06 08:41:45 51°16.356 2°53.71 326.3 12.1 323 12.7
2012-03-06 08:42:45 51°16.515 2°53.524 325.2 11.9 322 13.1
2012-03-06 08:43:45 51°16.662 2°53.312 319 11.8 315 12.9
2012-03-06 08:44:45 51°16.813 2°53.112 325.7 11.6 322 11.3
2012-03-06 08:45:45 51°16.957 2°52.911 321.6 11.7 318 10.2
2012-03-06 08:46:45 51°17.103 2°52.709 322.2 11.6 316 10.9
2012-03-06 08:47:45 51°17.236 2°52.481 318.1 11.9 313 11.6
2012-03-06 08:48:45 51°17.377 2°52.26 321.9 11.9 318 12.5
2012-03-06 08:49:45 51°17.521 2°52.053 321.1 11.7 316 12.3
2012-03-06 08:50:45 51°17.667 2°51.848 325 11.6 320 11.3
2012-03-06 08:51:45 51°17.804 2°51.645 322.2 9.3 319 11.5
2012-03-06 08:52:45 51°17.886 2°51.596 7.3 3.3 359 11.9
2012-03-06 08:53:45 51°17.907 2°51.607 43 0.4 139 11.9
2012-03-06 08:54:45 51°17.9 2°51.609 64.9 0.6 172 11.9
2012-03-06 08:55:46 51°17.891 2°51.608 80.8 0.6 179 -999
2012-03-06 08:56:46 51°17.878 2°51.608 96.8 0.7 176 11.9
2012-03-06 08:57:45 51°17.866 2°51.608 110.6 0.7 174 11.8
2012-03-06 08:58:45 51°17.852 2°51.608 122.5 0.8 177 11.9
2012-03-06 08:59:45 51°17.839 2°51.61 130.7 0.7 165 11.9
2012-03-06 09:00:45 51°17.824 2°51.611 135.8 0.8 175 11.9
2012-03-06 09:01:45 51°17.81 2°51.613 133.5 0.8 162 11.9
2012-03-06 09:02:45 51°17.796 2°51.617 129 0.9 172 11.6
2012-03-06 09:03:45 51°17.784 2°51.623 125.3 0.7 156 11.9
2012-03-06 09:04:45 51°17.772 2°51.631 119.8 0.8 158 11.7
2012-03-06 09:05:45 51°17.76 2°51.64 116.9 0.7 144 11.7
2012-03-06 09:06:45 51°17.749 2°51.648 114.9 0.8 158 11.8
2012-03-06 09:07:45 51°17.738 2°51.658 110.8 0.8 151 11.7
2012-03-06 09:08:45 51°17.751 2°51.722 39.7 4.1 37 11.9
2012-03-06 09:09:45 51°17.816 2°51.675 307.3 6.2 304 11.7
2012-03-06 09:10:45 51°17.903 2°51.481 309.7 10.7 310 12.3
2012-03-06 09:11:45 51°18.041 2°51.273 323.6 11.5 321 14.3
2012-03-06 09:12:45 51°18.188 2°51.076 323.2 11.7 321 14.3
2012-03-06 09:13:45 51°18.327 2°50.864 320.2 11.6 320 15.2
2012-03-06 09:14:45 51°18.463 2°50.76 352.6 6.8 355 16.2
2012-03-06 09:15:45 51°18.531 2°50.83 67.4 4.5 73 16.2
2012-03-06 09:16:45 51°18.525 2°50.95 105.2 3.7 105 15.9
2012-03-06 09:17:45 51°18.516 2°50.986 126.6 0.4 133 15.9
2012-03-06 09:18:45 51°18.509 2°50.993 142.1 0.8 145 15.9
2012-03-06 09:19:45 51°18.499 2°51.004 144 0.7 158 16.2
2012-03-06 09:20:45 51°18.489 2°51.018 138.6 0.7 142 16.1
2012-03-06 09:21:45 51°18.479 2°51.034 132.9 0.8 135 15.7
2012-03-06 09:22:45 51°18.47 2°51.051 126.5 0.9 122 15.9
2012-03-06 09:23:45 51°18.462 2°51.07 121.4 0.8 121 16.1
2012-03-06 09:24:45 51°18.454 2°51.089 116 0.7 120 15.7
2012-03-06 09:25:45 51°18.447 2°51.108 115.7 0.8 110 15.7
2012-03-06 09:26:45 51°18.438 2°51.129 114.9 1 127 15.8
2012-03-06 09:27:45 51°18.428 2°51.149 119.7 0.9 129 15.7
2012-03-06 09:28:45 51°18.419 2°51.167 125.2 0.8 124 15.6
2012-03-06 09:29:45 51°18.41 2°51.183 124.9 0.8 139 15.7
2012-03-06 09:30:45 51°18.401 2°51.199 124.7 0.7 135 16
2012-03-06 09:31:45 51°18.393 2°51.217 122.6 0.9 128 15.5
2012-03-06 09:32:45 51°18.385 2°51.233 121.8 0.8 127 15.6
2012-03-06 09:33:45 51°18.379 2°51.248 120 0.7 122 15.6
2012-03-06 09:34:45 51°18.372 2°51.263 120.2 0.6 123 15.5
2012-03-06 09:35:45 51°18.367 2°51.277 120.9 0.6 118 15.5
2012-03-06 09:36:45 51°18.361 2°51.29 125.3 0.7 133 15.7
2012-03-06 09:37:45 51°18.355 2°51.304 126.3 0.7 123 15.2
2012-03-06 09:38:45 51°18.35 2°51.318 125.4 0.6 116 15.2
2012-03-06 09:39:45 51°18.344 2°51.335 121.4 0.7 116 15.3
2012-03-06 09:40:45 51°18.34 2°51.353 117 0.6 107 15.1
2012-03-06 09:41:45 51°18.337 2°51.37 115.9 0.6 109 15.3
2012-03-06 09:42:45 51°18.334 2°51.388 114.9 0.7 108 15.4
2012-03-06 09:43:45 51°18.33 2°51.405 116.4 0.7 108 15.4
2012-03-06 09:44:45 51°18.328 2°51.42 120.3 0.6 95 15
2012-03-06 09:45:45 51°18.326 2°51.434 123.9 0.6 100 14.9
2012-03-06 09:46:45 51°18.324 2°51.448 127.9 0.6 106 15.3
2012-03-06 09:47:45 51°18.321 2°51.463 133.7 0.6 113 15.1
2012-03-06 09:48:45 51°18.318 2°51.479 136.8 0.7 106 15
2012-03-06 09:49:45 51°18.315 2°51.496 139.9 0.6 108 15.2
2012-03-06 09:50:45 51°18.311 2°51.513 141.5 0.8 102 14.8
2012-03-06 09:51:45 51°18.308 2°51.531 140.2 0.6 100 14.9
2012-03-06 09:52:45 51°18.306 2°51.55 138.9 0.6 105 15
2012-03-06 09:53:45 51°18.304 2°51.571 137.7 0.9 96 15
2012-03-06 09:54:45 51°18.303 2°51.593 136 0.6 99 15
2012-03-06 09:55:45 51°18.292 2°51.625 157.1 2.4 141 14.7
2012-03-06 09:56:45 51°18.252 2°51.614 234.3 2.8 235 14.7
2012-03-06 09:57:45 51°18.262 2°51.486 286.1 7.9 291 14.9
2012-03-06 09:58:45 51°18.351 2°51.288 313.6 9.9 319 15.7
2012-03-06 09:59:45 51°18.467 2°51.075 295 10.8 296 16.7
2012-03-06 10:00:45 51°18.542 2°50.924 342.9 5.9 353 17
2012-03-06 10:01:45 51°18.609 2°50.99 55.4 3.3 56 17.2
2012-03-06 10:02:45 51°18.623 2°51.039 93.5 1.4 73 17.4
2012-03-06 10:03:45 51°18.628 2°51.073 114.4 1.2 76 17.2
2012-03-06 10:04:45 51°18.633 2°51.102 126.1 1.1 78 17
2012-03-06 10:05:45 51°18.636 2°51.127 135.8 0.8 78 17.2
2012-03-06 10:06:45 51°18.629 2°51.164 140.9 2.9 120 16.9
2012-03-06 10:07:45 51°18.596 2°51.288 112.3 8.4 104 17.2
2012-03-06 10:08:45 51°18.636 2°51.585 63.7 13.1 63 16.2
2012-03-06 10:09:45 51°18.765 2°51.877 52.8 13.6 51 16.5
2012-03-06 10:10:45 51°18.905 2°52.159 53.8 13.6 53 16.2
2012-03-06 10:11:45 51°19.045 2°52.442 53.8 13.5 53 16.2
2012-03-06 10:12:45 51°19.172 2°52.739 58.9 13.5 58 16.4
2012-03-06 10:13:45 51°19.302 2°53.03 50 13.5 48 16.2
2012-03-06 10:14:45 51°19.468 2°53.267 41.3 13.3 42 16
2012-03-06 10:15:45 51°19.637 2°53.5 41.9 13.6 41 16.3
2012-03-06 10:16:45 51°19.799 2°53.747 48.5 13.6 48 16.8
2012-03-06 10:17:45 51°19.954 2°54.01 47.2 13.5 44 16.5
2012-03-06 10:18:45 51°20.115 2°54.261 45.5 13.5 44 17.3
2012-03-06 10:19:45 51°20.274 2°54.516 44.4 13.6 43 17.2
2012-03-06 10:20:45 51°20.441 2°54.755 42.5 13.6 41 17.4
2012-03-06 10:21:45 51°20.608 2°55.001 47.7 13.7 45 17.7
2012-03-06 10:22:45 51°20.766 2°55.26 47.8 13.7 46 18
2012-03-06 10:23:45 51°20.928 2°55.511 42.6 13.6 44 18.3
2012-03-06 10:24:45 51°21.097 2°55.752 41.8 13.6 42 18.1
2012-03-06 10:25:45 51°21.265 2°55.996 45.1 13.7 43 18.8
2012-03-06 10:26:45 51°21.425 2°56.256 47.3 13.9 45 18.8
2012-03-06 10:27:45 51°21.587 2°56.515 45.7 13.8 44 19.3
2012-03-06 10:28:45 51°21.756 2°56.766 42.2 13.8 42 19.7
2012-03-06 10:29:45 51°21.921 2°57.02 46.7 13.8 46 19.9
2012-03-06 10:30:45 51°22.087 2°57.277 45.5 13.9 43 19.9
2012-03-06 10:31:45 51°22.246 2°57.546 46.3 14 44 20.5
2012-03-06 10:32:45 51°22.42 2°57.791 42.3 13.8 41 20.7
2012-03-06 10:33:45 51°22.592 2°58.039 45 13.9 44 20.3
2012-03-06 10:34:45 51°22.789 2°58.217 19.5 13.6 20 20.7
2012-03-06 10:35:45 51°23.007 2°58.322 16.8 13.6 17 21.4
2012-03-06 10:36:45 51°23.226 2°58.424 17.2 13.7 19 21.1
2012-03-06 10:37:45 51°23.442 2°58.522 12.1 13.7 15 20.2
2012-03-06 10:38:45 51°23.66 2°58.616 12.6 13.6 16 20.1
2012-03-06 10:39:45 51°23.878 2°58.69 5.4 13.4 7 19.4
2012-03-06 10:40:45 51°24.096 2°58.715 2.7 13.1 5 18.5
2012-03-06 10:41:45 51°24.311 2°58.761 5.9 12.9 7 18.1
2012-03-06 10:42:45 51°24.527 2°58.794 6.3 13.1 9 19.7
2012-03-06 10:43:45 51°24.741 2°58.865 13.4 13 16 21.8
2012-03-06 10:44:45 51°24.951 2°58.958 20.4 13.1 21 21.3
2012-03-06 10:45:45 51°25.149 2°59.117 29.1 13.4 28 22
2012-03-06 10:46:45 51°25.346 2°59.283 30.1 13.4 30 22.4
2012-03-06 10:47:45 51°25.529 2°59.487 39.8 13.4 39 22.8
2012-03-06 10:48:45 51°25.711 2°59.694 35.5 13.4 34 23.1
2012-03-06 10:49:45 51°25.898 2°59.889 34.5 13.4 32 23
2012-03-06 10:50:45 51°26.084 3°0.09 36.8 13.5 34 23.7
2012-03-06 10:51:45 51°26.257 3°0.322 46.6 13.5 44 23.2
2012-03-06 10:52:45 51°26.422 3°0.571 45.9 13.7 41 22.1
2012-03-06 10:53:45 51°26.593 3°0.812 44.1 13.6 43 22.1
2012-03-06 10:54:45 51°26.765 3°1.053 41.5 13.6 40 19.5
2012-03-06 10:55:45 51°26.942 3°1.286 43.3 13.9 43 16.5
2012-03-06 10:56:45 51°27.11 3°1.544 44.3 13.9 42 17.2
2012-03-06 10:57:45 51°27.288 3°1.785 40.4 13.9 40 19.4
2012-03-06 10:58:45 51°27.465 3°2.029 42.8 14 41 21.4
2012-03-06 10:59:45 51°27.632 3°2.287 50.1 13.9 47 23.5
2012-03-06 11:00:45 51°27.791 3°2.555 47 13.9 44 23.8
2012-03-06 11:01:45 51°27.955 3°2.805 46.5 13.7 44 24.3
2012-03-06 11:02:45 51°28.11 3°3.072 48 13.7 46 25.3
2012-03-06 11:03:45 51°28.276 3°3.316 45.4 12.7 44 25.2
2012-03-06 11:04:45 51°28.356 3°3.487 69.9 5.6 62 25.3
2012-03-06 11:05:45 51°28.386 3°3.587 66.4 3.1 61 24.9
2012-03-06 11:06:45 51°28.404 3°3.626 40 0.9 53 25.3
2012-03-06 11:07:49 51°28.408 3°3.639 44.5 0.6 58 -999
2012-03-06 11:08:47 51°28.413 3°3.648 50.4 0.4 60 25.3
2012-03-06 11:09:45 51°28.419 3°3.656 54.6 0.5 28 25.4
2012-03-06 11:10:45 51°28.427 3°3.666 59.4 0.8 34 25.4
2012-03-06 11:11:45 51°28.436 3°3.68 70.3 2 58 25.2
2012-03-06 11:12:45 51°28.42 3°3.796 132.9 7.8 123 24.9
2012-03-06 11:13:45 51°28.327 3°4.03 131.4 11.8 128 23.7
2012-03-06 11:14:45 51°28.188 3°4.268 143 12 139 21.8
2012-03-06 11:15:45 51°28.044 3°4.506 139.9 12.3 132 19.1
2012-03-06 11:16:45 51°27.899 3°4.739 139.6 12.1 137 17.4
2012-03-06 11:17:45 51°27.755 3°4.978 141.6 12.6 133 16.8
2012-03-06 11:18:45 51°27.623 3°5.208 138.9 9.4 133 17.4
2012-03-06 11:19:45 51°27.548 3°5.346 149.2 5.2 140 17.8
2012-03-06 11:20:45 51°27.493 3°5.337 233.2 2.7 235 17.4
2012-03-06 11:21:45 51°27.489 3°5.304 261.1 0.8 295 17.5
2012-03-06 11:22:45 51°27.501 3°5.289 275.9 0.8 336 17.9
2012-03-06 11:23:45 51°27.515 3°5.283 276.7 0.7 350 17.9
2012-03-06 11:24:45 51°27.528 3°5.282 276.7 0.8 357 16.9
2012-03-06 11:25:45 51°27.542 3°5.287 274.3 0.8 11 17.1
2012-03-06 11:26:45 51°27.555 3°5.295 272.2 0.9 25 17.3
2012-03-06 11:27:45 51°27.567 3°5.305 269.6 1 33 17.9
2012-03-06 11:28:45 51°27.58 3°5.315 267.3 0.9 34 18.3
2012-03-06 11:29:45 51°27.592 3°5.327 263.5 0.9 32 17.7
2012-03-06 11:30:45 51°27.604 3°5.34 260.1 0.8 39 18.2
2012-03-06 11:31:45 51°27.616 3°5.352 253.9 0.8 26 17.4
2012-03-06 11:32:45 51°27.626 3°5.366 246.5 0.8 43 18.2
2012-03-06 11:33:45 51°27.636 3°5.38 240.4 0.9 35 18.2
2012-03-06 11:34:45 51°27.646 3°5.393 233.2 0.9 33 17.8
2012-03-06 11:35:45 51°27.656 3°5.407 228.9 0.8 37 17.7
2012-03-06 11:36:45 51°27.666 3°5.421 224.2 0.9 35 17.3
2012-03-06 11:37:45 51°27.676 3°5.436 218.6 0.9 31 17.1
2012-03-06 11:38:45 51°27.685 3°5.451 213.9 0.7 44 17.6
2012-03-06 11:39:45 51°27.695 3°5.466 209.8 0.8 50 18.3
2012-03-06 11:40:45 51°27.702 3°5.482 203.7 0.8 64 18
2012-03-06 11:41:45 51°27.711 3°5.5 195.3 1 59 18.3
2012-03-06 11:42:45 51°27.719 3°5.517 191.2 0.8 52 17.6
2012-03-06 11:43:45 51°27.726 3°5.535 190.6 0.8 66 17.9
2012-03-06 11:44:45 51°27.733 3°5.551 190 0.7 62 17.6
2012-03-06 11:45:45 51°27.74 3°5.568 190 0.7 48 17.7
2012-03-06 11:46:45 51°27.748 3°5.585 190.5 0.8 55 17.8
2012-03-06 11:47:45 51°27.748 3°5.601 185.5 1.2 151 17.8
2012-03-06 11:48:45 51°27.693 3°5.622 178.2 4.2 167 17.5
2012-03-06 11:49:45 51°27.624 3°5.647 178.6 3.6 167 17.6
2012-03-06 11:50:45 51°27.576 3°5.663 185.1 2.6 174 17.3
2012-03-06 11:51:45 51°27.527 3°5.669 189.9 3.2 177 17.1
2012-03-06 11:52:45 51°27.473 3°5.665 191.3 3.2 185 16.9
2012-03-06 11:53:45 51°27.416 3°5.664 187.5 3.5 175 16.9
2012-03-06 11:54:45 51°27.359 3°5.679 177.4 3.6 162 16.6
2012-03-06 11:55:45 51°27.304 3°5.714 169.3 3.7 154 16.5
2012-03-06 11:56:45 51°27.251 3°5.762 162.7 3.8 147 16.3
2012-03-06 11:57:45 51°27.201 3°5.826 153.5 3.9 134 15.9
2012-03-06 11:58:45 51°27.161 3°5.914 136.6 4.2 118 15.8
2012-03-06 11:59:45 51°27.139 3°6.026 117.7 4.6 102 15.8
2012-03-06 12:00:45 51°27.138 3°6.153 98.1 4.9 83 15.7
2012-03-06 12:01:45 51°27.149 3°6.287 98.4 5.1 84 15.6
2012-03-06 12:02:45 51°27.155 3°6.42 98.3 5 83 15.7
2012-03-06 12:03:45 51°27.176 3°6.54 74.6 4.6 64 15.9
2012-03-06 12:04:45 51°27.218 3°6.641 57.6 4.6 55 15.7
2012-03-06 12:05:45 51°27.264 3°6.736 56.6 4.6 51 15.8
2012-03-06 12:06:45 51°27.313 3°6.83 53.1 4.5 48 16
2012-03-06 12:07:45 51°27.363 3°6.921 51.8 4.6 50 15.7
2012-03-06 12:08:45 51°27.414 3°7.011 53.1 4.5 49 16
2012-03-06 12:09:45 51°27.462 3°7.104 55.8 4.4 50 16.1
2012-03-06 12:10:45 51°27.514 3°7.191 47.8 4.4 44 16.1
2012-03-06 12:11:45 51°27.568 3°7.272 45.2 4.4 43 15.8
2012-03-06 12:12:45 51°27.622 3°7.35 42.3 4.4 40 16
2012-03-06 12:13:45 51°27.681 3°7.423 36.2 4.4 35 16
2012-03-06 12:14:45 51°27.741 3°7.494 36.4 4.5 38 16.1
2012-03-06 12:15:45 51°27.799 3°7.566 38.3 4.5 41 16
2012-03-06 12:16:45 51°27.857 3°7.638 39 4.4 37 15.9
2012-03-06 12:17:45 51°27.913 3°7.714 41.5 4.6 44 15.7
2012-03-06 12:18:45 51°27.97 3°7.791 43.6 4.4 43 16
2012-03-06 12:19:45 51°28.026 3°7.869 42.3 4.3 40 15.8
2012-03-06 12:20:45 51°28.083 3°7.946 43.2 4.4 42 15.8
2012-03-06 12:21:45 51°28.13 3°8.033 63.2 4.3 55 15.4
2012-03-06 12:22:45 51°28.163 3°8.131 83.5 4.1 69 14.8
2012-03-06 12:23:45 51°28.179 3°8.234 102.6 3.9 78 15.1
2012-03-06 12:24:45 51°28.188 3°8.34 99.3 4.1 80 15.6
2012-03-06 12:25:45 51°28.197 3°8.446 105.3 3.6 88 16.5
2012-03-06 12:26:45 51°28.198 3°8.55 114 3.6 91 16.3
2012-03-06 12:27:45 51°28.193 3°8.649 120.7 3.7 97 16.7
2012-03-06 12:28:45 51°28.182 3°8.742 129.5 3.5 103 16.7
2012-03-06 12:29:45 51°28.164 3°8.826 140.2 3.2 115 16.6
2012-03-06 12:30:45 51°28.136 3°8.889 168.9 2.4 142 16.4
2012-03-06 12:31:45 51°28.117 3°8.915 184.4 1.1 135 16.5
2012-03-06 12:32:45 51°28.108 3°8.936 182.5 0.9 112 16.3
2012-03-06 12:33:45 51°28.106 3°8.959 176.5 0.9 90 16.3
2012-03-06 12:34:45 51°28.099 3°8.976 198.1 1.1 180 16.3
2012-03-06 12:35:45 51°28.034 3°8.934 205.3 7.2 200 16.3
2012-03-06 12:36:45 51°27.896 3°8.815 210.2 10.8 210 16
2012-03-06 12:37:45 51°27.741 3°8.659 217.9 11.3 220 16
2012-03-06 12:38:45 51°27.623 3°8.432 233.1 11.2 238 15.3
2012-03-06 12:39:45 51°27.512 3°8.195 231.8 11.2 235 14.7
2012-03-06 12:40:45 51°27.397 3°7.959 227.7 11.2 224 14.4
2012-03-06 12:41:45 51°27.273 3°7.733 228.5 11.3 232 13.3
2012-03-06 12:42:45 51°27.154 3°7.5 227.9 11.3 228 14
2012-03-06 12:43:45 51°27.025 3°7.281 224.4 11.4 226 14.3
2012-03-06 12:44:45 51°26.908 3°7.044 231.5 11.4 231 14.6
2012-03-06 12:45:45 51°26.783 3°6.823 222.8 11.3 224 13.9
2012-03-06 12:46:45 51°26.655 3°6.607 224.1 11 220 14.2
2012-03-06 12:47:45 51°26.52 3°6.408 222.2 11 219 13.8
2012-03-06 12:48:45 51°26.386 3°6.215 223 10.8 221 13.4
2012-03-06 12:49:45 51°26.256 3°6.013 225.7 10.8 227 13.1
2012-03-06 12:50:45 51°26.133 3°5.808 227.2 10.4 226 12.8
2012-03-06 12:51:45 51°26.004 3°5.616 224.2 10.6 221 13.1
2012-03-06 12:52:45 51°25.879 3°5.417 229.4 10.7 228 13.2
2012-03-06 12:53:45 51°25.779 3°5.186 238.1 10.6 240 13.3
2012-03-06 12:54:45 51°25.681 3°4.953 235.5 10.6 237 13.3
2012-03-06 12:55:45 51°25.575 3°4.727 234.5 10.7 230 14
2012-03-06 12:56:45 51°25.474 3°4.494 235.2 10.7 236 13.6
2012-03-06 12:57:45 51°25.384 3°4.244 240.6 10.9 239 14.4
2012-03-06 12:58:45 51°25.296 3°3.995 241 10.9 243 14.4
2012-03-06 12:59:45 51°25.217 3°3.734 243.7 11 244 15.5
2012-03-06 13:00:45 51°25.13 3°3.482 238.9 10.9 236 16.2
2012-03-06 13:01:45 51°25.043 3°3.227 243.7 11 248 16.2
2012-03-06 13:02:45 51°24.955 3°2.973 240.4 10.9 240 17
2012-03-06 13:03:45 51°24.871 3°2.714 241.6 11.1 243 18.3
2012-03-06 13:04:45 51°24.784 3°2.456 244.8 11 246 19.7
2012-03-06 13:05:45 51°24.718 3°2.182 249.4 11 251 20.8
2012-03-06 13:06:45 51°24.645 3°1.91 244.3 11.2 245 21.5
2012-03-06 13:07:45 51°24.569 3°1.643 246.9 11.1 247 21.3
2012-03-06 13:08:45 51°24.496 3°1.376 244.2 10.8 243 18.5
2012-03-06 13:09:45 51°24.419 3°1.114 247.5 10.8 249 18.2
2012-03-06 13:10:45 51°24.343 3°0.852 238.8 11 241 18.1
2012-03-06 13:11:45 51°24.225 3°0.639 224.4 10.8 225 18.3
2012-03-06 13:12:45 51°24.097 3°0.439 227.2 10.9 227 19
2012-03-06 13:13:45 51°23.98 3°0.22 230.4 10.8 229 19.5
2012-03-06 13:14:45 51°23.856 3°0.011 227.1 10.9 226 20.1
2012-03-06 13:15:45 51°23.736 2°59.795 230.7 10.8 230 19.9
2012-03-06 13:16:45 51°23.622 2°59.574 228.8 10.8 227 20.2
2012-03-06 13:17:45 51°23.498 2°59.364 229.2 10.9 229 20.4
2012-03-06 13:18:45 51°23.373 2°59.159 229.4 10.8 230 20.2
2012-03-06 13:19:45 51°23.258 2°58.938 228.2 10.9 225 20.5
2012-03-06 13:20:45 51°23.141 2°58.722 231.6 10.8 229 20.3
2012-03-06 13:21:45 51°23.023 2°58.504 228.6 10.8 225 20.4
2012-03-06 13:22:45 51°22.879 2°58.333 215.7 10.8 210 20
2012-03-06 13:23:45 51°22.73 2°58.169 218.5 10.8 217 19.5
2012-03-06 13:24:45 51°22.584 2°57.998 219.4 11 217 19.7
2012-03-06 13:25:45 51°22.436 2°57.831 218.7 10.9 217 19.5
2012-03-06 13:26:45 51°22.295 2°57.651 222.7 10.7 218 19.6
2012-03-06 13:27:45 51°22.16 2°57.457 225 11 224 18.7
2012-03-06 13:28:45 51°22.021 2°57.276 211.2 9.9 196 18.5
2012-03-06 13:29:45 51°21.883 2°57.374 148.3 10.6 141 17.7
2012-03-06 13:30:45 51°21.727 2°57.573 148.1 12.4 144 16.3
2012-03-06 13:31:45 51°21.56 2°57.766 146.9 12.2 143 15.3
2012-03-06 13:32:45 51°21.41 2°58 136.5 12.5 131 14.7
2012-03-06 13:33:45 51°21.272 2°58.257 130.5 12.5 126 14.1
2012-03-06 13:34:45 51°21.168 2°58.552 117.4 12.8 110 13.6
2012-03-06 13:35:45 51°21.102 2°58.878 112.1 12.9 106 13.6
2012-03-06 13:36:45 51°21.028 2°59.197 119.8 12.5 116 13
2012-03-06 13:37:45 51°20.929 2°59.493 122.4 12.3 119 12.7
2012-03-06 13:38:46 51°20.826 2°59.791 119.9 12.4 119 12.3
2012-03-06 13:39:48 51°20.721 3°0.09 125.1 12.5 120 -999
2012-03-06 13:40:48 51°20.621 3°0.379 120.9 12.2 116 -999
2012-03-06 13:41:48 51°20.521 3°0.668 121.7 12.3 119 11.6
2012-03-06 13:42:45 51°20.433 3°0.946 117.2 12.6 115 11.3
2012-03-06 13:43:45 51°20.362 3°1.187 109.3 6.9 103 10.9
2012-03-06 13:44:45 51°20.378 3°1.311 68.8 4 64 11.1
2012-03-06 13:45:45 51°20.409 3°1.399 62.6 3.6 59 11.5
2012-03-06 13:46:45 51°20.442 3°1.476 57.4 3.5 53 11.4
2012-03-06 13:47:45 51°20.478 3°1.546 57.8 3.3 52 11.3
2012-03-06 13:48:45 51°20.51 3°1.629 69.8 3.8 62 10.6
2012-03-06 13:49:45 51°20.537 3°1.723 73.4 3.8 67 11.2
2012-03-06 13:50:45 51°20.56 3°1.815 75.5 3.7 67 11
2012-03-06 13:51:45 51°20.579 3°1.905 75.5 3.5 74 11
2012-03-06 13:52:45 51°20.599 3°1.992 71.6 3.5 67 11
2012-03-06 13:53:45 51°20.623 3°2.077 67.7 3.5 65 11.4
2012-03-06 13:54:45 51°20.646 3°2.161 71.6 3.4 69 11.4
2012-03-06 13:55:45 51°20.666 3°2.246 74.6 3.4 72 11.1
2012-03-06 13:56:45 51°20.688 3°2.328 65.7 3.3 64 11.6
2012-03-06 13:57:45 51°20.718 3°2.402 58.2 3.4 55 11.3
2012-03-06 13:58:45 51°20.75 3°2.476 64.4 3.4 59 11.4
2012-03-06 13:59:45 51°20.772 3°2.558 74.7 3.3 70 11.4
2012-03-06 14:00:45 51°20.789 3°2.641 75.1 3.3 70 11.3
2012-03-06 14:01:45 51°20.806 3°2.723 72.3 3.3 68 11.5
2012-03-06 14:02:45 51°20.826 3°2.805 69.3 3.4 67 11.2
2012-03-06 14:03:45 51°20.849 3°2.886 67.7 3.4 65 11.4
2012-03-06 14:04:45 51°20.871 3°2.97 69.3 3.4 68 11.5
2012-03-06 14:05:45 51°20.891 3°3.055 73.8 3.5 69 11.4
2012-03-06 14:06:45 51°20.908 3°3.142 74.7 3.4 73 11.5
2012-03-06 14:07:45 51°20.925 3°3.228 73.1 3.2 74 11.2
2012-03-06 14:08:45 51°20.945 3°3.312 69.6 3.4 65 11.5
2012-03-06 14:09:45 51°20.967 3°3.393 67.4 3.3 67 11.4
2012-03-06 14:10:45 51°20.989 3°3.475 69.6 3.4 68 11.8
2012-03-06 14:11:45 51°21.008 3°3.556 72.9 3.2 73 11.7
2012-03-06 14:12:45 51°21.025 3°3.641 74.6 3.3 75 11.6
2012-03-06 14:13:45 51°21.042 3°3.724 73.8 3.3 72 11.6
2012-03-06 14:14:45 51°21.063 3°3.806 69.8 3.2 66 11.7
2012-03-06 14:15:45 51°21.087 3°3.886 68.3 3.2 69 11.7
2012-03-06 14:16:45 51°21.113 3°3.966 68.3 3.6 57 11.6
2012-03-06 14:17:45 51°21.137 3°4.047 70.8 3.4 66 11.6
2012-03-06 14:18:45 51°21.16 3°4.13 72.5 3.4 66 11.5
2012-03-06 14:19:45 51°21.183 3°4.213 73.4 3.4 67 11.9
2012-03-06 14:20:45 51°21.208 3°4.298 74.1 3.5 69 11.4
2012-03-06 14:21:45 51°21.23 3°4.39 81.7 3.7 76 11.6
2012-03-06 14:22:46 51°21.232 3°4.487 102.8 3.5 100 11.4
2012-03-06 14:23:46 51°21.218 3°4.577 112.5 3.4 110 11.4
2012-03-06 14:24:46 51°21.187 3°4.647 138.6 3.1 142 11.4
2012-03-06 14:25:46 51°21.138 3°4.669 176.4 3.3 181 11.3
2012-03-06 14:26:46 51°21.096 3°4.655 192.9 2.1 199 10.9
2012-03-06 14:27:46 51°21.067 3°4.637 195.9 1.7 202 11
2012-03-06 14:28:46 51°21.017 3°4.595 211.2 5.1 212 10.7
2012-03-06 14:29:46 51°20.945 3°4.476 231.1 5.4 234 10.3
2012-03-06 14:30:46 51°20.915 3°4.381 251.2 3.3 249 10.7
2012-03-06 14:31:46 51°20.904 3°4.296 261.7 3.9 258 10.5
2012-03-06 14:32:46 51°20.888 3°4.121 260.3 9.3 259 10.6
2012-03-06 14:33:46 51°20.84 3°3.848 253.3 11.2 252 10.2
2012-03-06 14:34:46 51°20.787 3°3.559 255.3 11.4 256 10.1
2012-03-06 14:35:46 51°20.736 3°3.267 252.8 11.3 252 10.3
2012-03-06 14:36:46 51°20.678 3°2.981 251.9 11.4 250 10.1
2012-03-06 14:37:46 51°20.626 3°2.693 257 11.2 257 10.4
2012-03-06 14:38:46 51°20.59 3°2.399 259.1 11.3 259 10.4
2012-03-06 14:39:46 51°20.536 3°2.113 248.4 11.2 248 10.1
2012-03-06 14:40:46 51°20.47 3°1.834 249.3 11.2 251 10
2012-03-06 14:41:46 51°20.401 3°1.554 247 11.2 248 10
2012-03-06 14:42:46 51°20.334 3°1.273 252.8 11.3 252 9.9
2012-03-06 14:43:46 51°20.277 3°0.985 254.2 11.4 255 10
2012-03-06 14:44:46 51°20.228 3°0.695 254.1 11.3 254 10.3
2012-03-06 14:45:46 51°20.168 3°0.412 247.8 11.2 249 10.2
2012-03-06 14:46:46 51°20.099 3°0.135 246.9 11.2 249 10.2
2012-03-06 14:47:46 51°20.039 2°59.851 249.1 11.4 249 10.1
2012-03-06 14:48:46 51°19.98 2°59.565 251.1 11.3 251 10
2012-03-06 14:49:46 51°19.923 2°59.277 253 11.4 252 10.4
2012-03-06 14:50:46 51°19.86 2°58.995 245.6 11.2 248 10.1
2012-03-06 14:51:46 51°19.788 2°58.719 248.2 11.3 249 10.6
2012-03-06 14:52:46 51°19.733 2°58.432 251.7 11.4 252 10.6
2012-03-06 14:53:46 51°19.66 2°58.148 246.1 11.6 248 10.3
2012-03-06 14:54:46 51°19.593 2°57.86 252.7 11.6 251 10.9
2012-03-06 14:55:46 51°19.535 2°57.568 249.6 11.6 250 11.1
2012-03-06 14:56:46 51°19.47 2°57.283 249.6 11.3 251 11.1
2012-03-06 14:57:46 51°19.406 2°57 252.4 11.2 255 10.8
2012-03-06 14:58:46 51°19.342 2°56.716 250.1 11.4 249 10.9
2012-03-06 14:59:46 51°19.282 2°56.43 253.1 11.3 255 11.3
2012-03-06 15:00:46 51°19.219 2°56.146 247.9 11.2 247 11.3
2012-03-06 15:01:46 51°19.138 2°55.874 246.5 11.3 245 11.5
2012-03-06 15:02:46 51°19.069 2°55.592 247.3 11.5 246 11.5
2012-03-06 15:03:46 51°18.995 2°55.312 248.5 11.5 247 11.4
2012-03-06 15:04:46 51°18.921 2°55.03 245.6 11.4 247 11.6
2012-03-06 15:05:46 51°18.838 2°54.754 245.4 11.5 245 11.4
2012-03-06 15:06:46 51°18.759 2°54.474 246.3 11.5 247 11.3
2012-03-06 15:07:46 51°18.69 2°54.186 250 11.6 248 11.5
2012-03-06 15:08:46 51°18.617 2°53.903 244.5 11.4 244 11.6
2012-03-06 15:09:46 51°18.53 2°53.629 243.2 11.6 243 11.5
2012-03-06 15:10:46 51°18.448 2°53.352 245.7 11.6 247 11.3
2012-03-06 15:11:46 51°18.372 2°53.072 247.3 11.5 244 11.4
2012-03-06 15:12:46 51°18.267 2°52.82 229.5 11.5 228 11
2012-03-06 15:13:46 51°18.123 2°52.629 211.2 11.1 213 11.1
2012-03-06 15:14:46 51°17.96 2°52.483 204.8 11.2 206 10.8
2012-03-06 15:15:46 51°17.785 2°52.388 191.3 10.9 193 10.6
2012-03-06 15:16:46 51°17.602 2°52.351 181.8 10.8 184 10.5
2012-03-06 15:17:46 51°17.422 2°52.359 172.1 10.6 177 10.6
2012-03-06 15:18:46 51°17.243 2°52.39 167.7 10.7 171 10.4
2012-03-06 15:19:46 51°17.071 2°52.464 154.2 10.6 156 10
2012-03-06 15:20:46 51°16.911 2°52.588 149.6 10.6 153 10
2012-03-06 15:21:46 51°16.75 2°52.71 152.8 10.6 157 9.8
2012-03-06 15:22:46 51°16.581 2°52.816 157.8 11.1 160 11.8
2012-03-06 15:23:46 51°16.422 2°52.942 147.1 11 151 12.3
2012-03-06 15:24:46 51°16.274 2°53.092 144.5 10.4 146 12.4
2012-03-06 15:25:46 51°16.117 2°53.223 153.2 10.6 154 12.1
2012-03-06 15:26:46 51°15.96 2°53.348 147.4 10.8 152 12.1
2012-03-06 15:27:46 51°15.795 2°53.448 154.4 10.3 158 12.1
2012-03-06 15:28:46 51°15.636 2°53.567 147.5 10.4 151 10.9
2012-03-06 15:29:46 51°15.486 2°53.707 144 10.3 150 10.3
2012-03-06 15:30:46 51°15.344 2°53.87 138.5 10.5 143 9.6
2012-03-06 15:31:46 51°15.218 2°54.059 130.6 10.4 132 9.1
2012-03-06 15:32:46 51°15.092 2°54.249 135.5 10.5 139 8.7
2012-03-06 15:33:46 51°14.959 2°54.429 134.2 10.4 137 9.2
2012-03-06 15:34:46 51°14.83 2°54.614 135.1 10.4 140 11.3
2012-03-06 15:35:46 51°14.701 2°54.793 136.5 10.2 140 11
2012-03-06 15:36:46 51°14.57 2°54.961 138.7 10.1 142 11.6
2012-03-06 15:37:48 51°14.432 2°55.123 145.2 10 145 -999
2012-03-06 15:38:50 51°14.306 2°55.256 146.3 7.9 148 -999
2012-03-06 15:39:50 51°14.197 2°55.355 151.5 7.5 153 -999
2012-03-06 15:40:50 51°14.086 2°55.44 154.8 7 154 10.2
2012-03-06 15:41:50 51°13.996 2°55.511 154.4 5.6 152 -999
2012-03-06 15:42:50 51°13.914 2°55.574 155.9 5.7 156 10.2
2012-03-06 15:43:49 51°13.823 2°55.644 154.4 6.3 155 -999
2012-03-06 15:44:50 51°13.746 2°55.723 135.1 4.5 138 -999
2012-03-06 15:45:50 51°13.701 2°55.81 127.4 4.2 127 -999
2012-03-06 15:46:50 51°13.662 2°55.899 119.7 3.6 122 -999
2012-03-06 15:47:50 51°13.643 2°55.991 111.1 3.7 105 -999